createdAt,value
2019-04-30T00:04:15.943Z,46.2
2019-04-30T00:14:19.311Z,46.2
2019-04-30T00:24:22.657Z,46.2
2019-04-30T00:34:25.967Z,46.2
2019-04-30T00:44:29.342Z,46.2
2019-04-30T00:54:32.680Z,46.2
2019-04-30T01:04:36.027Z,46.2
2019-04-30T01:14:39.368Z,46.3
2019-04-30T01:24:42.814Z,46.2
2019-04-30T01:34:53.996Z,46.2
2019-04-30T01:44:59.106Z,46.2
2019-04-30T01:55:02.458Z,46.3
2019-04-30T02:05:05.834Z,46.2
2019-04-30T02:15:09.697Z,46.2
2019-04-30T02:25:13.053Z,46.2
2019-04-30T02:35:16.364Z,46.2
2019-04-30T02:45:19.981Z,46.2
2019-04-30T02:55:23.345Z,46.3
2019-04-30T03:05:26.708Z,46.3
2019-04-30T03:15:30.214Z,46.2
2019-04-30T03:25:33.564Z,46.2
2019-04-30T03:35:47.400Z,46.2
2019-04-30T03:46:02.673Z,46.2
2019-04-30T03:56:06.424Z,46.2
2019-04-30T04:06:09.777Z,46.2
2019-04-30T04:16:13.136Z,46.2
2019-04-30T04:26:16.540Z,46.2
2019-04-30T04:36:20.227Z,46.2
2019-04-30T04:46:23.585Z,46.2
2019-04-30T04:56:26.921Z,46.2
2019-04-30T05:06:30.275Z,46.2
2019-04-30T05:16:33.593Z,46.3
2019-04-30T05:26:38.762Z,46.2
2019-04-30T05:36:42.102Z,46.1
2019-04-30T05:46:45.438Z,46.1
2019-04-30T05:56:49.503Z,46.2
2019-04-30T06:06:52.842Z,46.3
2019-04-30T06:16:56.161Z,46.2
2019-04-30T06:26:59.473Z,46.3
2019-04-30T06:37:02.806Z,50.5
2019-04-30T06:47:06.138Z,50.4
2019-04-30T06:57:12.232Z,50.3
2019-04-30T07:07:23.140Z,49.9
2019-04-30T07:17:44.769Z,49.6
2019-04-30T07:27:50.759Z,49.4
2019-04-30T08:04:19.019Z,49.4
2019-04-30T09:25:39.546Z,48.9
2019-04-30T09:35:43.017Z,50.4
2019-04-30T09:45:46.356Z,51.3
2019-04-30T09:55:49.894Z,50.7
2019-04-30T10:05:53.250Z,51.1
2019-04-30T10:15:58.672Z,50.6
2019-04-30T10:26:01.990Z,50.2
2019-04-30T10:36:05.318Z,50
2019-04-30T10:46:09.915Z,49.7
2019-04-30T10:56:13.266Z,49.5
2019-04-30T11:06:16.580Z,49.3
2019-04-30T11:16:19.945Z,49.1
2019-04-30T11:26:24.155Z,49
2019-04-30T11:36:29.343Z,48.8
2019-04-30T11:46:32.672Z,50.8
2019-04-30T11:56:38.453Z,51.4
2019-04-30T12:06:42.798Z,51.4
2019-04-30T12:16:46.124Z,51
2019-04-30T12:26:53.948Z,50.9
2019-04-30T12:36:57.319Z,50.9
2019-04-30T12:47:00.624Z,50.9
2019-04-30T12:57:03.933Z,50.6
2019-04-30T13:07:11.684Z,50.5
2019-04-30T13:17:17.793Z,50.6
2019-04-30T13:27:22.760Z,50.9
2019-04-30T13:37:26.107Z,50.7
2019-04-30T13:47:29.487Z,50.9
2019-04-30T13:57:34.616Z,51.3
2019-04-30T14:14:32.771Z,50.4
2019-04-30T14:24:36.076Z,50.2
2019-04-30T14:34:39.749Z,49.4
2019-04-30T14:44:44.238Z,49.2
2019-04-30T14:54:50.579Z,49.4
2019-04-30T15:05:53.275Z,49.6
2019-04-30T15:35:35.531Z,49.5
2019-04-30T15:45:39.875Z,49.6
2019-04-30T15:55:43.219Z,49.6
2019-04-30T16:50:40.021Z,49.3
2019-04-30T17:00:43.342Z,48.6
2019-04-30T17:10:46.672Z,48.6
2019-04-30T17:20:50.001Z,49
2019-04-30T17:30:53.321Z,48.6
2019-04-30T17:40:56.676Z,48.6
2019-04-30T17:50:59.982Z,48.5
2019-04-30T18:01:03.312Z,48.5
2019-04-30T18:11:06.642Z,48.4
2019-04-30T18:21:09.967Z,48.5
2019-04-30T18:31:13.297Z,48.4
2019-04-30T18:41:16.627Z,48.4
2019-04-30T18:51:39.311Z,48.3
2019-04-30T19:01:46.118Z,48.3
2019-04-30T19:11:49.527Z,48.3
2019-04-30T19:21:52.867Z,48.2
2019-04-30T19:31:56.210Z,48.2
2019-04-30T19:42:01.178Z,48.2
2019-04-30T19:52:11.582Z,48.3
2019-04-30T20:02:16.065Z,48.2
2019-04-30T20:12:19.406Z,48.3
2019-04-30T20:22:23.216Z,48.4
2019-04-30T20:32:36.675Z,48.3
2019-04-30T20:42:40.253Z,48.4
2019-04-30T20:52:43.574Z,48.3
2019-04-30T21:02:48.715Z,48.4
2019-04-30T21:12:52.069Z,48.4
2019-04-30T21:22:55.406Z,48.4
2019-04-30T21:32:59.559Z,48.4
2019-04-30T21:43:02.894Z,48.3
2019-04-30T21:53:06.254Z,48.3
2019-04-30T22:03:09.905Z,48.2
2019-04-30T22:13:13.267Z,48.2
2019-04-30T22:23:16.603Z,48.2
2019-04-30T22:33:19.946Z,48.1
2019-04-30T22:43:23.293Z,48.1
2019-04-30T22:53:26.633Z,48
2019-04-30T23:03:29.946Z,48
2019-04-30T23:13:33.288Z,47.9
2019-04-30T23:23:36.609Z,47.9
2019-04-30T23:33:39.951Z,47.9
2019-04-30T23:43:43.287Z,47.8
2019-04-30T23:53:46.597Z,47.8
